sensor_id;sensor_type;location;lat;lon;timestamp;pressure;altitude;pressure_sealevel;temperature;humidity
76632;BME280;65526;48.578;-4.520;2023-05-10T00:02:26;101553.13;;;12.35;96.58
76632;BME280;65526;48.578;-4.520;2023-05-10T00:04:52;101457.16;;;11.41;96.51
76632;BME280;65526;48.578;-4.520;2023-05-10T00:07:19;101548.91;;;12.29;96.32
76632;BME280;65526;48.578;-4.520;2023-05-10T00:09:45;101395.59;;;10.92;96.39
76632;BME280;65526;48.578;-4.520;2023-05-10T00:12:12;101247.78;;;10.02;96.26
76632;BME280;65526;48.578;-4.520;2023-05-10T00:14:38;101309.28;;;10.59;96.38
76632;BME280;65526;48.578;-4.520;2023-05-10T00:17:04;101315.16;;;10.58;96.56
76632;BME280;65526;48.578;-4.520;2023-05-10T00:19:31;101271.63;;;10.03;96.46
76632;BME280;65526;48.578;-4.520;2023-05-10T00:21:57;101363.56;;;10.86;96.64
76632;BME280;65526;48.578;-4.520;2023-05-10T00:24:24;101127.38;;;9.39;96.74
76632;BME280;65526;48.578;-4.520;2023-05-10T00:26:50;101560.47;;;12.19;97.09
76632;BME280;65526;48.578;-4.520;2023-05-10T00:29:16;101076.25;;;9.11;96.59
76632;BME280;65526;48.578;-4.520;2023-05-10T00:31:43;101544.69;;;12.23;96.83
76632;BME280;65526;48.578;-4.520;2023-05-10T00:34:09;100890.47;;;7.80;96.31
76632;BME280;65526;48.578;-4.520;2023-05-10T00:36:36;101124.50;;;9.27;96.34
76632;BME280;65526;48.578;-4.520;2023-05-10T00:39:02;101319.22;;;10.69;96.75
76632;BME280;65526;48.578;-4.520;2023-05-10T00:41:30;101053.38;;;9.23;96.80
76632;BME280;65526;48.578;-4.520;2023-05-10T00:44:00;101273.63;;;10.32;96.89
76632;BME280;65526;48.578;-4.520;2023-05-10T00:46:28;100982.94;;;8.77;96.56
76632;BME280;65526;48.578;-4.520;2023-05-10T00:48:55;101577.53;;;12.17;97.26
76632;BME280;65526;48.578;-4.520;2023-05-10T00:51:21;101614.22;;;12.19;96.94
76632;BME280;65526;48.578;-4.520;2023-05-10T00:53:48;101269.69;;;10.62;96.43
76632;BME280;65526;48.578;-4.520;2023-05-10T00:56:15;100987.84;;;8.80;96.37
76632;BME280;65526;48.578;-4.520;2023-05-10T00:58:42;101082.63;;;9.11;96.56
76632;BME280;65526;48.578;-4.520;2023-05-10T01:01:09;100707.13;;;7.07;96.53
76632;BME280;65526;48.578;-4.520;2023-05-10T01:03:37;101328.94;;;10.54;96.87
76632;BME280;65526;48.578;-4.520;2023-05-10T01:06:03;101498.38;;;11.77;97.12
76632;BME280;65526;48.578;-4.520;2023-05-10T01:08:30;101289.25;;;10.45;97.25
76632;BME280;65526;48.578;-4.520;2023-05-10T01:10:57;100772.25;;;7.42;96.67
76632;BME280;65526;48.578;-4.520;2023-05-10T01:13:31;100883.88;;;8.27;96.47
76632;BME280;65526;48.578;-4.520;2023-05-10T01:15:59;101299.53;;;10.45;97.06
76632;BME280;65526;48.578;-4.520;2023-05-10T01:18:29;101563.38;;;12.22;97.05
76632;BME280;65526;48.578;-4.520;2023-05-10T01:26:45;101521.00;;;12.17;97.41
76632;BME280;65526;48.578;-4.520;2023-05-10T01:34:32;101370.53;;;11.01;97.61
76632;BME280;65526;48.578;-4.520;2023-05-10T01:37:10;101238.03;;;10.25;97.54
76632;BME280;65526;48.578;-4.520;2023-05-10T01:39:47;100735.97;;;7.35;97.46
76632;BME280;65526;48.578;-4.520;2023-05-10T01:42:18;101074.91;;;9.26;97.97
76632;BME280;65526;48.578;-4.520;2023-05-10T01:45:05;101231.41;;;10.39;98.07
76632;BME280;65526;48.578;-4.520;2023-05-10T01:47:41;101050.44;;;9.28;97.95
76632;BME280;65526;48.578;-4.520;2023-05-10T01:50:24;100845.16;;;8.02;97.95
76632;BME280;65526;48.578;-4.520;2023-05-10T01:52:57;101127.34;;;9.48;97.90
76632;BME280;65526;48.578;-4.520;2023-05-10T01:55:27;101435.00;;;11.74;98.43
76632;BME280;65526;48.578;-4.520;2023-05-10T01:58:03;101466.47;;;11.66;98.02
76632;BME280;65526;48.578;-4.520;2023-05-10T02:00:31;101223.84;;;10.48;97.78
76632;BME280;65526;48.578;-4.520;2023-05-10T02:03:00;101026.03;;;9.04;97.43
76632;BME280;65526;48.578;-4.520;2023-05-10T02:05:28;101404.16;;;11.37;98.08
76632;BME280;65526;48.578;-4.520;2023-05-10T02:07:57;100946.16;;;8.68;97.32
76632;BME280;65526;48.578;-4.520;2023-05-10T02:10:25;100660.16;;;6.90;97.26
76632;BME280;65526;48.578;-4.520;2023-05-10T02:12:53;100588.88;;;6.49;96.89
76632;BME280;65526;48.578;-4.520;2023-05-10T02:15:23;101319.09;;;10.86;97.97
76632;BME280;65526;48.578;-4.520;2023-05-10T02:17:50;101515.75;;;12.15;98.24
76632;BME280;65526;48.578;-4.520;2023-05-10T02:20:19;101583.72;;;12.23;98.12
76632;BME280;65526;48.578;-4.520;2023-05-10T02:22:47;101205.06;;;10.15;97.61
76632;BME280;65526;48.578;-4.520;2023-05-10T02:25:15;101329.66;;;10.93;98.35
76632;BME280;65526;48.578;-4.520;2023-05-10T02:27:43;101311.81;;;10.73;97.89
76632;BME280;65526;48.578;-4.520;2023-05-10T02:30:11;100812.00;;;7.93;97.49
76632;BME280;65526;48.578;-4.520;2023-05-10T02:32:39;101550.75;;;12.25;98.56
76632;BME280;65526;48.578;-4.520;2023-05-10T02:35:08;100722.16;;;7.35;97.60
76632;BME280;65526;48.578;-4.520;2023-05-10T02:37:37;100879.66;;;8.21;98.23
76632;BME280;65526;48.578;-4.520;2023-05-10T02:40:05;101250.84;;;10.68;98.56
76632;BME280;65526;48.578;-4.520;2023-05-10T02:42:35;101116.53;;;9.84;98.27
76632;BME280;65526;48.578;-4.520;2023-05-10T02:45:08;101538.34;;;12.35;98.35
76632;BME280;65526;48.578;-4.520;2023-05-10T02:47:37;101099.34;;;9.32;98.28
76632;BME280;65526;48.578;-4.520;2023-05-10T02:50:04;101603.28;;;12.35;98.74
76632;BME280;65526;48.578;-4.520;2023-05-10T02:52:39;101234.84;;;10.65;98.73
76632;BME280;65526;48.578;-4.520;2023-05-10T02:55:09;101328.88;;;11.13;98.34
76632;BME280;65526;48.578;-4.520;2023-05-10T02:57:42;101519.09;;;12.42;98.67
76632;BME280;65526;48.578;-4.520;2023-05-10T03:00:09;101598.31;;;12.41;99.16
76632;BME280;65526;48.578;-4.520;2023-05-10T03:02:36;101520.75;;;12.43;98.61
76632;BME280;65526;48.578;-4.520;2023-05-10T03:05:02;101540.38;;;12.46;98.42
76632;BME280;65526;48.578;-4.520;2023-05-10T03:07:29;101503.34;;;12.46;98.65
76632;BME280;65526;48.578;-4.520;2023-05-10T03:09:56;101394.84;;;11.33;98.74
76632;BME280;65526;48.578;-4.520;2023-05-10T03:12:35;100759.78;;;7.83;97.86
76632;BME280;65526;48.578;-4.520;2023-05-10T03:15:31;100769.19;;;7.90;97.79
76632;BME280;65526;48.578;-4.520;2023-05-10T03:18:10;101192.75;;;10.54;98.54
76632;BME280;65526;48.578;-4.520;2023-05-10T03:21:04;101027.59;;;9.51;98.09
76632;BME280;65526;48.578;-4.520;2023-05-10T03:23:50;101063.38;;;9.44;98.33
76632;BME280;65526;48.578;-4.520;2023-05-10T03:26:25;101563.97;;;12.49;98.77
76632;BME280;65526;48.578;-4.520;2023-05-10T03:28:58;101247.63;;;10.57;98.43
76632;BME280;65526;48.578;-4.520;2023-05-10T03:31:25;101565.59;;;12.50;99.09
76632;BME280;65526;48.578;-4.520;2023-05-10T03:33:52;101282.03;;;10.73;98.88
76632;BME280;65526;48.578;-4.520;2023-05-10T03:36:25;100763.97;;;7.89;98.17
76632;BME280;65526;48.578;-4.520;2023-05-10T03:38:52;100752.38;;;7.57;98.48
76632;BME280;65526;48.578;-4.520;2023-05-10T03:41:19;101259.41;;;10.84;98.46
76632;BME280;65526;48.578;-4.520;2023-05-10T03:43:47;101037.44;;;9.49;98.61
76632;BME280;65526;48.578;-4.520;2023-05-10T03:46:14;101268.03;;;10.91;98.62
76632;BME280;65526;48.578;-4.520;2023-05-10T03:48:43;101543.97;;;12.47;98.85
76632;BME280;65526;48.578;-4.520;2023-05-10T03:51:09;101514.94;;;12.48;98.77
76632;BME280;65526;48.578;-4.520;2023-05-10T03:53:35;101556.66;;;12.44;98.70
76632;BME280;65526;48.578;-4.520;2023-05-10T03:56:02;101492.19;;;12.46;98.98
76632;BME280;65526;48.578;-4.520;2023-05-10T03:58:28;101096.38;;;9.75;98.25
76632;BME280;65526;48.578;-4.520;2023-05-10T04:00:55;100800.66;;;8.15;98.48
76632;BME280;65526;48.578;-4.520;2023-05-10T04:03:22;101530.50;;;12.49;98.44
76632;BME280;65526;48.578;-4.520;2023-05-10T04:05:49;101011.16;;;9.46;97.87
76632;BME280;65526;48.578;-4.520;2023-05-10T04:08:15;100902.47;;;8.65;97.70
76632;BME280;65526;48.578;-4.520;2023-05-10T04:10:42;101501.22;;;12.43;98.21
76632;BME280;65526;48.578;-4.520;2023-05-10T04:13:08;101158.44;;;10.00;98.03
76632;BME280;65526;48.578;-4.520;2023-05-10T04:15:35;101531.28;;;12.37;98.46
76632;BME280;65526;48.578;-4.520;2023-05-10T04:18:02;101560.00;;;12.38;98.72
76632;BME280;65526;48.578;-4.520;2023-05-10T04:20:28;101038.75;;;9.43;98.42
76632;BME280;65526;48.578;-4.520;2023-05-10T04:22:54;101299.88;;;10.72;98.64
76632;BME280;65526;48.578;-4.520;2023-05-10T04:25:21;101053.78;;;9.42;97.97
76632;BME280;65526;48.578;-4.520;2023-05-10T04:27:47;101281.56;;;10.71;98.51
76632;BME280;65526;48.578;-4.520;2023-05-10T04:30:14;101219.66;;;10.62;98.52
76632;BME280;65526;48.578;-4.520;2023-05-10T04:32:40;101093.16;;;9.65;98.46
76632;BME280;65526;48.578;-4.520;2023-05-10T04:35:07;101276.47;;;10.73;98.58
76632;BME280;65526;48.578;-4.520;2023-05-10T04:37:34;100874.22;;;8.42;98.38
76632;BME280;65526;48.578;-4.520;2023-05-10T04:40:01;100728.13;;;7.54;97.92
76632;BME280;65526;48.578;-4.520;2023-05-10T04:42:29;101205.72;;;10.50;98.33
76632;BME280;65526;48.578;-4.520;2023-05-10T04:44:55;101592.56;;;12.46;98.89
76632;BME280;65526;48.578;-4.520;2023-05-10T04:47:21;101273.13;;;10.89;98.58
76632;BME280;65526;48.578;-4.520;2023-05-10T04:49:48;101275.06;;;10.88;98.51
76632;BME280;65526;48.578;-4.520;2023-05-10T04:52:14;101510.88;;;12.45;99.16
76632;BME280;65526;48.578;-4.520;2023-05-10T04:54:43;101075.38;;;9.28;98.47
76632;BME280;65526;48.578;-4.520;2023-05-10T04:57:09;101516.78;;;12.44;98.73
76632;BME280;65526;48.578;-4.520;2023-05-10T04:59:36;100865.72;;;8.01;97.69
76632;BME280;65526;48.578;-4.520;2023-05-10T05:02:04;100837.00;;;8.14;97.57
76632;BME280;65526;48.578;-4.520;2023-05-10T05:04:31;100824.03;;;7.97;97.45
76632;BME280;65526;48.578;-4.520;2023-05-10T05:06:57;101082.03;;;9.65;97.87
76632;BME280;65526;48.578;-4.520;2023-05-10T05:09:24;101386.53;;;11.25;98.09
76632;BME280;65526;48.578;-4.520;2023-05-10T05:11:50;100897.53;;;8.24;98.79
76632;BME280;65526;48.578;-4.520;2023-05-10T05:14:16;101021.69;;;9.32;98.97
76632;BME280;65526;48.578;-4.520;2023-05-10T05:16:43;101259.84;;;10.65;98.97
76632;BME280;65526;48.578;-4.520;2023-05-10T05:19:09;100994.69;;;9.12;98.48
76632;BME280;65526;48.578;-4.520;2023-05-10T05:21:36;101321.94;;;10.98;98.98
76632;BME280;65526;48.578;-4.520;2023-05-10T05:24:02;101033.69;;;9.16;99.00
76632;BME280;65526;48.578;-4.520;2023-05-10T05:26:29;100864.81;;;8.26;99.34
76632;BME280;65526;48.578;-4.520;2023-05-10T05:28:55;101523.03;;;12.41;99.45
76632;BME280;65526;48.578;-4.520;2023-05-10T05:31:21;101088.53;;;9.39;98.91
76632;BME280;65526;48.578;-4.520;2023-05-10T05:33:48;101262.38;;;10.79;99.08
76632;BME280;65526;48.578;-4.520;2023-05-10T05:36:14;101224.63;;;10.27;99.03
76632;BME280;65526;48.578;-4.520;2023-05-10T05:38:41;101175.66;;;10.23;99.26
76632;BME280;65526;48.578;-4.520;2023-05-10T05:41:07;101376.22;;;11.04;99.01
76632;BME280;65526;48.578;-4.520;2023-05-10T05:43:33;101294.75;;;11.04;99.47
76632;BME280;65526;48.578;-4.520;2023-05-10T05:46:00;100956.50;;;8.42;98.76
76632;BME280;65526;48.578;-4.520;2023-05-10T05:48:26;101298.47;;;10.87;98.93
76632;BME280;65526;48.578;-4.520;2023-05-10T05:50:56;101099.38;;;9.62;99.41
76632;BME280;65526;48.578;-4.520;2023-05-10T05:53:23;101307.84;;;11.03;99.27
76632;BME280;65526;48.578;-4.520;2023-05-10T05:55:54;100770.06;;;7.74;98.99
76632;BME280;65526;48.578;-4.520;2023-05-10T05:58:21;100836.03;;;8.10;98.73
76632;BME280;65526;48.578;-4.520;2023-05-10T06:00:48;101297.41;;;10.71;98.91
76632;BME280;65526;48.578;-4.520;2023-05-10T06:03:14;100697.63;;;7.34;98.77
76632;BME280;65526;48.578;-4.520;2023-05-10T06:05:41;100794.97;;;7.74;98.63
76632;BME280;65526;48.578;-4.520;2023-05-10T06:08:08;101047.63;;;9.57;98.69
76632;BME280;65526;48.578;-4.520;2023-05-10T06:10:34;101031.97;;;9.32;98.33
76632;BME280;65526;48.578;-4.520;2023-05-10T06:13:00;101560.00;;;12.70;98.87
76632;BME280;65526;48.578;-4.520;2023-05-10T06:15:27;101199.00;;;9.84;98.65
76632;BME280;65526;48.578;-4.520;2023-05-10T06:17:53;101637.94;;;12.46;99.24
76632;BME280;65526;48.578;-4.520;2023-05-10T06:20:20;101221.81;;;9.60;99.00
76632;BME280;65526;48.578;-4.520;2023-05-10T06:22:46;101149.72;;;9.43;99.20
76632;BME280;65526;48.578;-4.520;2023-05-10T06:25:13;101077.97;;;8.78;99.66
76632;BME280;65526;48.578;-4.520;2023-05-10T06:27:40;100993.81;;;8.35;100.00
76632;BME280;65526;48.578;-4.520;2023-05-10T06:30:07;101674.00;;;12.01;100.00
76632;BME280;65526;48.578;-4.520;2023-05-10T06:32:34;101611.56;;;12.02;100.00
76632;BME280;65526;48.578;-4.520;2023-05-10T06:35:01;101113.81;;;8.83;100.00
76632;BME280;65526;48.578;-4.520;2023-05-10T06:37:27;101107.25;;;9.04;100.00
76632;BME280;65526;48.578;-4.520;2023-05-10T06:39:54;100905.63;;;7.74;100.00
76632;BME280;65526;48.578;-4.520;2023-05-10T06:42:20;101621.38;;;12.08;100.00
76632;BME280;65526;48.578;-4.520;2023-05-10T06:44:46;101394.38;;;10.43;100.00
76632;BME280;65526;48.578;-4.520;2023-05-10T06:47:13;101569.44;;;11.45;100.00
76632;BME280;65526;48.578;-4.520;2023-05-10T06:49:39;100894.88;;;7.81;100.00
76632;BME280;65526;48.578;-4.520;2023-05-10T06:52:06;101081.34;;;9.00;100.00
76632;BME280;65526;48.578;-4.520;2023-05-10T06:54:32;100853.06;;;7.48;100.00
76632;BME280;65526;48.578;-4.520;2023-05-10T06:56:58;100914.72;;;8.00;100.00
76632;BME280;65526;48.578;-4.520;2023-05-10T06:59:25;101610.78;;;12.22;100.00
76632;BME280;65526;48.578;-4.520;2023-05-10T07:01:51;101602.13;;;12.15;100.00
76632;BME280;65526;48.578;-4.520;2023-05-10T07:04:18;101146.19;;;9.25;100.00
76632;BME280;65526;48.578;-4.520;2023-05-10T07:06:44;101110.13;;;9.25;100.00
76632;BME280;65526;48.578;-4.520;2023-05-10T07:09:12;101213.97;;;9.62;100.00
76632;BME280;65526;48.578;-4.520;2023-05-10T07:11:39;101483.88;;;11.33;100.00
76632;BME280;65526;48.578;-4.520;2023-05-10T07:14:05;101657.22;;;12.18;100.00
76632;BME280;65526;48.578;-4.520;2023-05-10T07:16:35;101437.47;;;10.96;100.00
76632;BME280;65526;48.578;-4.520;2023-05-10T07:19:02;101650.84;;;12.09;100.00
76632;BME280;65526;48.578;-4.520;2023-05-10T07:21:28;100883.81;;;7.64;100.00
76632;BME280;65526;48.578;-4.520;2023-05-10T07:23:55;101443.13;;;11.08;100.00
76632;BME280;65526;48.578;-4.520;2023-05-10T07:26:21;101110.66;;;9.19;100.00
76632;BME280;65526;48.578;-4.520;2023-05-10T07:28:47;101629.44;;;12.01;100.00
76632;BME280;65526;48.578;-4.520;2023-05-10T07:31:14;101597.72;;;12.35;100.00
76632;BME280;65526;48.578;-4.520;2023-05-10T07:33:40;101180.91;;;9.40;100.00
76632;BME280;65526;48.578;-4.520;2023-05-10T07:36:07;101567.81;;;12.23;100.00
76632;BME280;65526;48.578;-4.520;2023-05-10T07:38:33;101458.09;;;11.24;100.00
76632;BME280;65526;48.578;-4.520;2023-05-10T07:41:00;101346.88;;;10.86;100.00
76632;BME280;65526;48.578;-4.520;2023-05-10T07:43:26;101388.84;;;11.02;100.00
76632;BME280;65526;48.578;-4.520;2023-05-10T07:45:52;100850.38;;;8.03;99.78
76632;BME280;65526;48.578;-4.520;2023-05-10T07:48:19;101096.00;;;9.56;99.39
76632;BME280;65526;48.578;-4.520;2023-05-10T07:50:45;101635.38;;;12.62;99.32
76632;BME280;65526;48.578;-4.520;2023-05-10T07:53:11;101652.03;;;12.50;99.43
76632;BME280;65526;48.578;-4.520;2023-05-10T07:55:38;101604.09;;;12.89;98.87
76632;BME280;65526;48.578;-4.520;2023-05-10T07:58:04;101360.34;;;11.05;97.94
76632;BME280;65526;48.578;-4.520;2023-05-10T08:00:31;101157.38;;;10.13;96.53
76632;BME280;65526;48.578;-4.520;2023-05-10T08:02:57;100833.31;;;8.01;96.41
76632;BME280;65526;48.578;-4.520;2023-05-10T08:05:23;101340.00;;;11.34;96.86
76632;BME280;65526;48.578;-4.520;2023-05-10T08:07:50;101002.19;;;8.82;95.69
76632;BME280;65526;48.578;-4.520;2023-05-10T08:10:16;101024.28;;;8.99;95.82
76632;BME280;65526;48.578;-4.520;2023-05-10T08:12:42;101643.66;;;13.03;96.39
76632;BME280;65526;48.578;-4.520;2023-05-10T08:15:09;100973.72;;;9.02;95.57
76632;BME280;65526;48.578;-4.520;2023-05-10T08:17:36;101083.91;;;9.81;96.16
76632;BME280;65526;48.578;-4.520;2023-05-10T08:20:02;101605.53;;;12.75;95.71
76632;BME280;65526;48.578;-4.520;2023-05-10T08:22:29;101620.00;;;13.22;96.35
76632;BME280;65526;48.578;-4.520;2023-05-10T08:24:55;101384.59;;;11.46;96.17
76632;BME280;65526;48.578;-4.520;2023-05-10T08:27:23;101639.94;;;13.32;96.31
76632;BME280;65526;48.578;-4.520;2023-05-10T08:29:49;101399.84;;;11.61;96.00
76632;BME280;65526;48.578;-4.520;2023-05-10T08:32:15;101635.41;;;13.40;95.97
76632;BME280;65526;48.578;-4.520;2023-05-10T08:34:42;101255.81;;;10.62;95.96
76632;BME280;65526;48.578;-4.520;2023-05-10T08:37:08;101635.63;;;13.47;96.12
76632;BME280;65526;48.578;-4.520;2023-05-10T08:39:36;101396.00;;;11.74;95.83
76632;BME280;65526;48.578;-4.520;2023-05-10T08:42:04;101631.47;;;13.53;96.17
76632;BME280;65526;48.578;-4.520;2023-05-10T08:44:35;101709.69;;;13.65;95.90
76632;BME280;65526;48.578;-4.520;2023-05-10T08:47:05;101645.19;;;13.70;95.91
76632;BME280;65526;48.578;-4.520;2023-05-10T08:49:33;101433.03;;;12.40;95.62
76632;BME280;65526;48.578;-4.520;2023-05-10T08:52:02;101645.53;;;13.81;96.24
76632;BME280;65526;48.578;-4.520;2023-05-10T08:54:31;101637.28;;;13.84;94.96
76632;BME280;65526;48.578;-4.520;2023-05-10T08:56:59;101458.84;;;12.61;95.39
76632;BME280;65526;48.578;-4.520;2023-05-10T08:59:27;101223.59;;;11.03;94.97
76632;BME280;65526;48.578;-4.520;2023-05-10T09:01:57;101621.00;;;13.86;94.65
76632;BME280;65526;48.578;-4.520;2023-05-10T09:04:24;101054.75;;;10.38;95.04
76632;BME280;65526;48.578;-4.520;2023-05-10T09:06:50;101372.03;;;12.26;94.92
76632;BME280;65526;48.578;-4.520;2023-05-10T09:09:17;101029.34;;;9.85;94.61
76632;BME280;65526;48.578;-4.520;2023-05-10T09:11:44;101020.19;;;9.85;94.59
76632;BME280;65526;48.578;-4.520;2023-05-10T09:14:12;101173.41;;;11.11;94.80
76632;BME280;65526;48.578;-4.520;2023-05-10T09:16:39;101372.84;;;12.39;94.64
76632;BME280;65526;48.578;-4.520;2023-05-10T09:19:06;101421.00;;;12.73;94.27
76632;BME280;65526;48.578;-4.520;2023-05-10T09:21:35;101194.19;;;11.14;94.60
76632;BME280;65526;48.578;-4.520;2023-05-10T09:24:05;101174.22;;;11.12;95.16
76632;BME280;65526;48.578;-4.520;2023-05-10T09:26:32;100951.88;;;9.92;94.47
76632;BME280;65526;48.578;-4.520;2023-05-10T09:29:00;101087.06;;;10.63;93.61
76632;BME280;65526;48.578;-4.520;2023-05-10T09:31:44;101377.06;;;12.57;94.34
76632;BME280;65526;48.578;-4.520;2023-05-10T09:34:19;101088.00;;;10.67;94.36
76632;BME280;65526;48.578;-4.520;2023-05-10T09:36:54;100928.38;;;9.90;92.27
76632;BME280;65526;48.578;-4.520;2023-05-10T09:39:30;101309.19;;;12.17;91.88
76632;BME280;65526;48.578;-4.520;2023-05-10T09:42:01;101202.16;;;11.36;91.67
76632;BME280;65526;48.578;-4.520;2023-05-10T09:44:30;101645.75;;;14.24;92.89
76632;BME280;65526;48.578;-4.520;2023-05-10T09:46:57;101260.19;;;11.59;93.01
76632;BME280;65526;48.578;-4.520;2023-05-10T09:49:23;101331.97;;;11.74;93.03
76632;BME280;65526;48.578;-4.520;2023-05-10T09:52:04;101219.59;;;11.58;91.93
76632;BME280;65526;48.578;-4.520;2023-05-10T09:54:31;101711.69;;;14.25;93.13
76632;BME280;65526;48.578;-4.520;2023-05-10T09:56:57;101206.25;;;11.51;91.59
76632;BME280;65526;48.578;-4.520;2023-05-10T09:59:27;101477.63;;;12.97;92.57
76632;BME280;65526;48.578;-4.520;2023-05-10T10:01:59;101678.13;;;14.38;92.00
76632;BME280;65526;48.578;-4.520;2023-05-10T10:04:26;100905.59;;;9.64;90.09
76632;BME280;65526;48.578;-4.520;2023-05-10T10:07:03;101473.00;;;13.26;90.50
76632;BME280;65526;48.578;-4.520;2023-05-10T10:09:29;101695.59;;;14.22;91.97
76632;BME280;65526;48.578;-4.520;2023-05-10T10:11:56;101718.56;;;14.52;91.75
76632;BME280;65526;48.578;-4.520;2023-05-10T10:14:23;101685.56;;;14.58;91.27
76632;BME280;65526;48.578;-4.520;2023-05-10T10:16:51;101007.09;;;10.48;88.34
76632;BME280;65526;48.578;-4.520;2023-05-10T10:19:21;101406.34;;;12.76;87.85
76632;BME280;65526;48.578;-4.520;2023-05-10T10:21:49;101050.38;;;10.69;87.66
76632;BME280;65526;48.578;-4.520;2023-05-10T10:24:16;101310.69;;;12.02;87.78
76632;BME280;65526;48.578;-4.520;2023-05-10T10:26:43;101715.78;;;14.40;87.46
76632;BME280;65526;48.578;-4.520;2023-05-10T10:29:21;101331.16;;;12.43;89.13
76632;BME280;65526;48.578;-4.520;2023-05-10T10:32:16;101709.00;;;14.53;89.04
76632;BME280;65526;48.578;-4.520;2023-05-10T10:34:45;101220.25;;;11.42;88.16
76632;BME280;65526;48.578;-4.520;2023-05-10T10:37:11;101001.19;;;10.37;86.80
76632;BME280;65526;48.578;-4.520;2023-05-10T10:39:39;101696.31;;;14.44;88.25
76632;BME280;65526;48.578;-4.520;2023-05-10T10:42:05;101179.44;;;11.46;87.86
76632;BME280;65526;48.578;-4.520;2023-05-10T10:47:21;101541.84;;;13.70;87.85
76632;BME280;65526;48.578;-4.520;2023-05-10T10:52:28;100920.06;;;9.90;87.31
76632;BME280;65526;48.578;-4.520;2023-05-10T10:57:28;100915.28;;;10.11;87.82
76632;BME280;65526;48.578;-4.520;2023-05-10T11:08:00;101683.75;;;14.78;87.35
76632;BME280;65526;48.578;-4.520;2023-05-10T11:10:27;100919.16;;;10.19;87.72
76632;BME280;65526;48.578;-4.520;2023-05-10T11:13:04;101292.03;;;12.51;88.38
76632;BME280;65526;48.578;-4.520;2023-05-10T11:15:32;101261.69;;;12.13;88.94
76632;BME280;65526;48.578;-4.520;2023-05-10T11:18:00;101429.94;;;13.39;89.60
76632;BME280;65526;48.578;-4.520;2023-05-10T11:20:42;101221.53;;;12.39;88.94
76632;BME280;65526;48.578;-4.520;2023-05-10T11:23:13;101497.75;;;14.04;86.43
76632;BME280;65526;48.578;-4.520;2023-05-10T11:25:42;101472.59;;;14.04;86.78
76632;BME280;65526;48.578;-4.520;2023-05-10T11:28:18;101327.44;;;12.99;87.20
76632;BME280;65526;48.578;-4.520;2023-05-10T11:30:46;101226.81;;;12.68;86.61
76632;BME280;65526;48.578;-4.520;2023-05-10T11:33:17;101118.44;;;11.53;85.79
76632;BME280;65526;48.578;-4.520;2023-05-10T11:35:46;101217.78;;;12.59;84.13
76632;BME280;65526;48.578;-4.520;2023-05-10T11:38:13;101152.47;;;12.08;84.47
76632;BME280;65526;48.578;-4.520;2023-05-10T11:40:40;101096.31;;;11.69;84.98
76632;BME280;65526;48.578;-4.520;2023-05-10T11:43:08;101114.69;;;11.25;85.54
76632;BME280;65526;48.578;-4.520;2023-05-10T11:45:36;101216.63;;;12.48;86.95
76632;BME280;65526;48.578;-4.520;2023-05-10T11:48:03;101661.66;;;15.32;84.99
76632;BME280;65526;48.578;-4.520;2023-05-10T12:24:35;101647.63;;;15.16;84.44
76632;BME280;65526;48.578;-4.520;2023-05-10T12:27:05;101692.53;;;15.20;86.43
76632;BME280;65526;48.578;-4.520;2023-05-10T12:29:33;101399.28;;;13.55;87.13
76632;BME280;65526;48.578;-4.520;2023-05-10T12:31:59;101419.91;;;13.90;86.31
76632;BME280;65526;48.578;-4.520;2023-05-10T12:34:33;101660.88;;;15.47;86.05
76632;BME280;65526;48.578;-4.520;2023-05-10T12:37:02;101265.06;;;13.07;84.35
76632;BME280;65526;48.578;-4.520;2023-05-10T12:39:42;101214.47;;;12.81;84.24
76632;BME280;65526;48.578;-4.520;2023-05-10T12:42:16;101222.66;;;12.62;84.06
76632;BME280;65526;48.578;-4.520;2023-05-10T12:44:43;100994.34;;;11.40;84.25
76632;BME280;65526;48.578;-4.520;2023-05-10T12:47:09;101208.78;;;12.78;84.51
76632;BME280;65526;48.578;-4.520;2023-05-10T12:49:37;100878.84;;;10.82;84.87
76632;BME280;65526;48.578;-4.520;2023-05-10T12:52:05;101419.94;;;14.06;81.25
76632;BME280;65526;48.578;-4.520;2023-05-10T12:54:31;101679.16;;;15.57;81.97
76632;BME280;65526;48.578;-4.520;2023-05-10T12:56:58;101100.81;;;11.86;80.80
76632;BME280;65526;48.578;-4.520;2023-05-10T12:59:24;101659.09;;;15.55;82.28
76632;BME280;65526;48.578;-4.520;2023-05-10T13:01:50;101405.25;;;13.81;82.17
76632;BME280;65526;48.578;-4.520;2023-05-10T13:04:18;100961.56;;;11.09;82.91
76632;BME280;65526;48.578;-4.520;2023-05-10T13:06:44;101214.63;;;12.73;84.35
76632;BME280;65526;48.578;-4.520;2023-05-10T13:09:10;101518.88;;;14.57;84.89
76632;BME280;65526;48.578;-4.520;2023-05-10T13:11:37;101460.31;;;14.36;83.88
76632;BME280;65526;48.578;-4.520;2023-05-10T13:14:05;100943.94;;;11.05;83.21
76632;BME280;65526;48.578;-4.520;2023-05-10T13:16:31;101679.53;;;15.55;84.87
76632;BME280;65526;48.578;-4.520;2023-05-10T13:18:58;101427.59;;;13.93;83.27
76632;BME280;65526;48.578;-4.520;2023-05-10T13:21:24;101651.34;;;15.36;84.11
76632;BME280;65526;48.578;-4.520;2023-05-10T13:23:52;101285.41;;;13.08;84.80
76632;BME280;65526;48.578;-4.520;2023-05-10T13:26:19;101315.19;;;13.16;84.66
76632;BME280;65526;48.578;-4.520;2023-05-10T13:28:46;101193.03;;;12.57;82.98
76632;BME280;65526;48.578;-4.520;2023-05-10T13:31:12;101473.97;;;13.70;83.78
76632;BME280;65526;48.578;-4.520;2023-05-10T13:33:38;101405.72;;;13.83;84.32
76632;BME280;65526;48.578;-4.520;2023-05-10T13:36:06;101457.34;;;13.73;83.99
76632;BME280;65526;48.578;-4.520;2023-05-10T13:38:32;101525.22;;;14.02;85.68
76632;BME280;65526;48.578;-4.520;2023-05-10T13:40:58;101059.75;;;11.10;83.67
76632;BME280;65526;48.578;-4.520;2023-05-10T13:43:26;101211.41;;;12.46;85.39
76632;BME280;65526;48.578;-4.520;2023-05-10T13:45:53;101458.53;;;13.60;85.39
76632;BME280;65526;48.578;-4.520;2023-05-10T13:48:19;101445.38;;;14.01;84.71
76632;BME280;65526;48.578;-4.520;2023-05-10T13:50:46;100912.19;;;10.70;84.47